createdAt,value
2023-03-24T00:00:28.539Z,99552.59
2023-03-24T00:02:35.489Z,99556.22
2023-03-24T00:04:43.115Z,99556.7
2023-03-24T00:06:50.267Z,99554.19
2023-03-24T00:08:57.491Z,99559.8
2023-03-24T00:11:04.032Z,99560.92
2023-03-24T00:13:10.927Z,99562.44
2023-03-24T00:15:18.443Z,99564.44
2023-03-24T00:17:26.231Z,99568.48
2023-03-24T00:19:33.387Z,99567.77
2023-03-24T00:21:40.370Z,99569.31
2023-03-24T00:23:47.077Z,99567.02
2023-03-24T00:25:53.955Z,99570.63
2023-03-24T00:28:02.121Z,99571.1
2023-03-24T00:30:11.723Z,99570.38
2023-03-24T00:32:19.422Z,99569.39
2023-03-24T00:34:25.983Z,99566.07
2023-03-24T00:36:33.060Z,99568.98
2023-03-24T00:38:39.506Z,99571.63
2023-03-24T00:40:47.803Z,99572.61
2023-03-24T00:42:58.223Z,99572
2023-03-24T00:45:05.139Z,99562.03
2023-03-24T00:47:11.739Z,99559.45
2023-03-24T00:49:18.197Z,99557
2023-03-24T00:51:24.977Z,99558.72
2023-03-24T00:53:31.877Z,99555.98
2023-03-24T00:55:38.672Z,99553.56
2023-03-24T00:57:45.696Z,99551.63
2023-03-24T00:59:52.468Z,99549.97
2023-03-24T01:01:58.966Z,99552.86
2023-03-24T01:04:06.192Z,99552.34
2023-03-24T01:06:15.044Z,99549.95
2023-03-24T01:08:21.503Z,99546.04
2023-03-24T01:10:29.756Z,99546.19
2023-03-24T01:12:36.364Z,99549.55
2023-03-24T01:14:43.092Z,99549.55
2023-03-24T01:16:52.814Z,99545.89
2023-03-24T01:19:02.316Z,99544.78
2023-03-24T01:21:09.596Z,99545.67
2023-03-24T01:23:17.462Z,99548.95
2023-03-24T01:25:24.401Z,99549.05
2023-03-24T01:27:31.399Z,99554.92
2023-03-24T01:29:44.484Z,99554.94
2023-03-24T01:31:51.659Z,99558.38
2023-03-24T01:33:59.077Z,99560.77
2023-03-24T01:36:09.059Z,99560.33
2023-03-24T01:38:21.413Z,99561.41
2023-03-24T01:40:32.155Z,99559.06
2023-03-24T01:42:38.827Z,99550.45
2023-03-24T01:44:46.001Z,99550.38
2023-03-24T01:46:53.062Z,99552.25
2023-03-24T01:49:01.478Z,99550.48
2023-03-24T01:51:07.985Z,99548.62
2023-03-24T01:53:14.443Z,99552.28
2023-03-24T01:55:21.478Z,99547.11
2023-03-24T01:57:28.353Z,99538.66
2023-03-24T01:59:35.269Z,99541.7
2023-03-24T02:01:42.238Z,99539.17
2023-03-24T02:03:51.457Z,99541.81
2023-03-24T02:06:00.759Z,99542
2023-03-24T02:08:07.808Z,99543.17
2023-03-24T02:10:14.834Z,99544.17
2023-03-24T02:12:23.174Z,99541.89
2023-03-24T02:14:31.225Z,99537.61
2023-03-24T02:16:38.648Z,99536.25
2023-03-24T02:18:51.458Z,99536.56
2023-03-24T02:21:03.788Z,99533.88
2023-03-24T02:23:10.698Z,99535.94
2023-03-24T02:25:17.312Z,99532.8
2023-03-24T02:27:24.005Z,99529.26
2023-03-24T02:29:33.884Z,99529.52
2023-03-24T02:31:40.526Z,99526.63
2023-03-24T02:33:49.165Z,99521.94
2023-03-24T02:35:59.444Z,99525.87
2023-03-24T02:38:10.203Z,99526.7
2023-03-24T02:40:19.522Z,99521.32
2023-03-24T02:42:30.296Z,99519.75
2023-03-24T02:44:37.145Z,99511.86
2023-03-24T02:46:46.548Z,99517.94
2023-03-24T02:48:59.492Z,99521.38
2023-03-24T02:51:06.202Z,99519.63
2023-03-24T02:53:13.155Z,99517.98
2023-03-24T02:55:19.853Z,99520.23
2023-03-24T02:57:26.318Z,99529.09
2023-03-24T02:59:35.898Z,99528.23
2023-03-24T03:01:46.027Z,99528.52
2023-03-24T03:03:53.443Z,99530.84
2023-03-24T03:06:02.209Z,99534.7
2023-03-24T03:08:11.594Z,99538.46
2023-03-24T03:10:18.735Z,99540.05
2023-03-24T03:12:29.562Z,99541.66
2023-03-24T03:14:37.073Z,99549.98
2023-03-24T03:16:45.743Z,99541.66
2023-03-24T03:18:52.831Z,99545.28
2023-03-24T03:21:03.134Z,99541.02
2023-03-24T03:23:11.679Z,99545.95
2023-03-24T03:25:25.591Z,99541.67
2023-03-24T03:27:37.874Z,99541.43
2023-03-24T03:29:44.719Z,99544.22
2023-03-24T03:31:56.958Z,99549.14
2023-03-24T03:34:04.030Z,99544.86
2023-03-24T03:36:10.928Z,99540.08
2023-03-24T03:38:17.887Z,99535.89
2023-03-24T03:40:28.074Z,99537.69
2023-03-24T03:42:37.514Z,99534.2
2023-03-24T03:44:43.947Z,99538.47
2023-03-24T03:46:50.921Z,99538.54
2023-03-24T03:48:57.861Z,99533.12
2023-03-24T03:51:15.236Z,99532.98
2023-03-24T03:53:22.189Z,99531.01
2023-03-24T03:55:31.155Z,99538.3
2023-03-24T03:57:42.799Z,99534.5
2023-03-24T03:59:49.648Z,99535.59
2023-03-24T04:01:59.817Z,99525.33
2023-03-24T04:04:06.527Z,99523.6
2023-03-24T04:06:13.169Z,99525.38
2023-03-24T04:08:20.126Z,99527.27
2023-03-24T04:10:30.231Z,99523.3
2023-03-24T04:12:37.198Z,99525.52
2023-03-24T04:14:50.828Z,99527.94
2023-03-24T04:16:57.487Z,99522.29
2023-03-24T04:19:07.268Z,99525
2023-03-24T04:21:13.927Z,99523.47
2023-03-24T04:23:20.727Z,99525.73
2023-03-24T04:25:27.322Z,99526.77
2023-03-24T04:27:34.116Z,99528.09
2023-03-24T04:29:40.591Z,99526.31
2023-03-24T04:31:47.539Z,99523.91
2023-03-24T04:33:56.741Z,99525.89
2023-03-24T04:36:03.631Z,99526.09
2023-03-24T04:38:17.078Z,99527.78
2023-03-24T04:40:24.933Z,99527.68
2023-03-24T04:42:31.786Z,99517.69
2023-03-24T04:44:38.379Z,99501.69
2023-03-24T04:46:45.343Z,99504.33
2023-03-24T04:48:55.158Z,99512.05
2023-03-24T04:51:01.647Z,99512.39
2023-03-24T04:53:08.647Z,99506.8
2023-03-24T04:55:15.760Z,99503.45
2023-03-24T04:57:22.662Z,99503.78
2023-03-24T04:59:29.633Z,99505.25
2023-03-24T05:01:39.628Z,99501.4
2023-03-24T05:03:55.751Z,99500.56
2023-03-24T05:06:09.168Z,99501.95
2023-03-24T05:08:16.670Z,99496.94
2023-03-24T05:10:23.821Z,99495.36
2023-03-24T05:12:30.649Z,99499.19
2023-03-24T05:14:44.224Z,99497.02
2023-03-24T05:16:53.912Z,99492.34
2023-03-24T05:19:00.314Z,99486.5
2023-03-24T05:21:07.152Z,99485.05
2023-03-24T05:23:13.684Z,99480.09
2023-03-24T05:25:20.477Z,99472.19
2023-03-24T05:27:27.266Z,99470.16
2023-03-24T05:29:43.841Z,99476.44
2023-03-24T05:31:53.705Z,99470.25
2023-03-24T05:34:01.838Z,99471.5
2023-03-24T05:36:09.119Z,99467.47
2023-03-24T05:38:16.455Z,99464.44
2023-03-24T05:40:22.817Z,99466.45
2023-03-24T05:42:29.789Z,99467.89
2023-03-24T05:44:37.452Z,99466.89
2023-03-24T05:46:48.356Z,99463.63
2023-03-24T05:48:55.093Z,99454.92
2023-03-24T05:51:05.290Z,99455.59
2023-03-24T05:53:11.991Z,99449.33
2023-03-24T05:55:20.575Z,99444.77
2023-03-24T05:57:27.251Z,99445.3
2023-03-24T05:59:34.167Z,99442.55
2023-03-24T06:01:40.641Z,99441.48
2023-03-24T06:03:47.493Z,99448.97
2023-03-24T06:05:55.527Z,99447.17
2023-03-24T06:08:04.060Z,99442.34
2023-03-24T06:10:10.955Z,99441.72
2023-03-24T06:12:20.471Z,99442.93
2023-03-24T06:14:27.225Z,99437.95
2023-03-24T06:16:36.961Z,99434.73
2023-03-24T06:18:46.688Z,99439.44
2023-03-24T06:20:53.810Z,99444.09
2023-03-24T06:23:00.806Z,99443.23
2023-03-24T06:25:07.253Z,99440.64
2023-03-24T06:27:14.289Z,99442.48
2023-03-24T06:29:22.859Z,99446.81
2023-03-24T06:31:30.149Z,99445.02
2023-03-24T06:33:37.473Z,99444.25
2023-03-24T06:35:44.650Z,99442
2023-03-24T06:37:52.531Z,99438.97
2023-03-24T06:39:59.029Z,99441.37
2023-03-24T06:42:06.228Z,99440.75
2023-03-24T06:44:14.612Z,99440.7
2023-03-24T06:46:21.549Z,99440.41
2023-03-24T06:48:27.901Z,99441.63
2023-03-24T06:50:34.962Z,99446.69
2023-03-24T06:52:43.533Z,99450.83
2023-03-24T06:54:50.068Z,99453.19
2023-03-24T06:56:57.517Z,99446.33
2023-03-24T06:59:04.968Z,99450.25
2023-03-24T07:01:11.885Z,99443.89
2023-03-24T07:03:19.074Z,99444.41
2023-03-24T07:05:26.378Z,99438.77
2023-03-24T07:08:34.483Z,99441.2
2023-03-24T07:10:44.617Z,99444.16
2023-03-24T07:12:52.352Z,99443.83
2023-03-24T07:14:59.147Z,99446.63
2023-03-24T07:17:05.925Z,99446.64
2023-03-24T07:19:16.257Z,99443.46
2023-03-24T07:21:23.302Z,99447.27
2023-03-24T07:23:29.808Z,99444.28
2023-03-24T07:25:37.926Z,99442.49
2023-03-24T07:27:45.162Z,99442.23
2023-03-24T07:29:52.244Z,99437.94
2023-03-24T07:31:59.523Z,99441.73
2023-03-24T07:34:08.340Z,99440.44
2023-03-24T07:36:16.306Z,99438.91
2023-03-24T07:38:23.872Z,99441.7
2023-03-24T07:40:30.970Z,99437.18
2023-03-24T07:42:38.598Z,99441.51
2023-03-24T07:44:49.524Z,99436.63
2023-03-24T07:46:56.618Z,99431.06
2023-03-24T07:49:19.656Z,99432.23
2023-03-24T07:51:27.104Z,99424.88
2023-03-24T07:53:34.943Z,99420.21
2023-03-24T07:55:50.787Z,99423.29
2023-03-24T07:57:59.416Z,99422.85
2023-03-24T08:00:06.665Z,99419.41
2023-03-24T08:02:13.359Z,99411.31
2023-03-24T08:04:23.359Z,99409.34
2023-03-24T08:06:31.221Z,99407.47
2023-03-24T08:08:38.080Z,99403.69
2023-03-24T08:10:45.205Z,99408.88
2023-03-24T08:12:52.271Z,99402.56
2023-03-24T08:14:59.275Z,99409.03
2023-03-24T08:17:05.765Z,99402.72
2023-03-24T08:19:12.260Z,99397.33
2023-03-24T08:21:19.013Z,99402.11
2023-03-24T08:23:26.032Z,99396.39
2023-03-24T08:25:32.655Z,99389
2023-03-24T08:27:39.184Z,99389.1
2023-03-24T08:29:45.839Z,99380.42
2023-03-24T08:31:52.146Z,99376.87
2023-03-24T08:33:59.659Z,99369.01
2023-03-24T08:36:06.510Z,99367.84
2023-03-24T08:38:13.399Z,99368.13
2023-03-24T08:40:22.901Z,99356.7
2023-03-24T08:42:31.166Z,99361.13
2023-03-24T08:44:38.284Z,99355.53
2023-03-24T08:46:47.612Z,99348.61
2023-03-24T08:48:56.361Z,99346.38
2023-03-24T08:51:03.361Z,99335.33
2023-03-24T08:53:09.711Z,99330.79
2023-03-24T08:55:16.654Z,99332.05
2023-03-24T08:57:23.820Z,99326.76
2023-03-24T08:59:30.484Z,99326.44
2023-03-24T09:01:37.569Z,99320.84
2023-03-24T09:03:44.713Z,99314.78
2023-03-24T09:05:51.317Z,99310.73
2023-03-24T09:07:58.351Z,99308.6
2023-03-24T09:10:05.178Z,99308.67
2023-03-24T09:12:12.000Z,99306.06
2023-03-24T09:14:18.436Z,99303.03
2023-03-24T09:16:26.252Z,99293.75
2023-03-24T09:18:33.206Z,99289.42
2023-03-24T09:20:39.610Z,99286.52
2023-03-24T09:22:46.451Z,99288.52
2023-03-24T09:24:53.370Z,99280.91
2023-03-24T09:26:59.849Z,99283.62
2023-03-24T09:29:06.695Z,99281.77
2023-03-24T09:31:13.639Z,99279.7
2023-03-24T09:33:20.722Z,99275.71
2023-03-24T09:35:28.823Z,99273.52
2023-03-24T09:37:36.075Z,99264.69
2023-03-24T09:39:43.805Z,99263.06
2023-03-24T09:41:50.588Z,99260.04
2023-03-24T09:43:57.930Z,99260.22
2023-03-24T09:46:05.675Z,99258.55
2023-03-24T09:48:12.486Z,99257.11
2023-03-24T09:50:22.668Z,99250.62
2023-03-24T09:52:30.444Z,99253.86
2023-03-24T09:54:37.598Z,99241.59
2023-03-24T09:56:44.684Z,99246.41
2023-03-24T09:58:57.079Z,99236.66
2023-03-24T10:01:04.116Z,99241.55
2023-03-24T10:03:11.894Z,99242.93
2023-03-24T10:05:19.437Z,99243.23
2023-03-24T10:07:25.861Z,99240.55
2023-03-24T10:09:35.170Z,99240.11
2023-03-24T10:11:42.823Z,99229.81
2023-03-24T10:13:50.745Z,99228.67
2023-03-24T10:15:57.600Z,99223.44
2023-03-24T10:18:04.041Z,99229.48
2023-03-24T10:20:10.993Z,99227.67
2023-03-24T10:22:18.019Z,99221.67
2023-03-24T10:24:26.007Z,99226.69
2023-03-24T10:26:32.940Z,99220.78
2023-03-24T10:28:39.972Z,99219.35
2023-03-24T10:30:49.958Z,99208.25
2023-03-24T10:32:56.555Z,99214.65
2023-03-24T10:35:03.458Z,99209.79
2023-03-24T10:37:09.834Z,99205.99
2023-03-24T10:39:26.242Z,99204.59
2023-03-24T10:41:50.512Z,99201.79
2023-03-24T10:43:57.558Z,99203.41
2023-03-24T10:46:04.345Z,99198.19
2023-03-24T10:48:11.137Z,99201
2023-03-24T10:50:17.491Z,99202.99
2023-03-24T10:52:24.167Z,99201.83
2023-03-24T10:54:31.378Z,99206.17
2023-03-24T10:56:38.406Z,99206.7
2023-03-24T10:58:45.933Z,99203.26
2023-03-24T11:00:52.888Z,99205.03
2023-03-24T11:02:59.634Z,99206.73
2023-03-24T11:05:07.230Z,99202.62
2023-03-24T11:07:14.157Z,99196.24
2023-03-24T11:09:20.934Z,99195.67
2023-03-24T11:11:28.079Z,99191.41
2023-03-24T11:13:36.077Z,99190.27
2023-03-24T11:15:43.330Z,99182.51
2023-03-24T11:17:50.463Z,99175.64
2023-03-24T11:19:57.564Z,99178.7
2023-03-24T11:22:04.224Z,99174.23
2023-03-24T11:24:11.452Z,99174.48
2023-03-24T11:26:19.137Z,99176.06
2023-03-24T11:28:27.058Z,99168.95
2023-03-24T11:30:34.174Z,99170.55
2023-03-24T11:32:41.721Z,99165
2023-03-24T11:34:49.041Z,99156.82
2023-03-24T11:36:56.132Z,99154.75
2023-03-24T11:39:03.843Z,99158.39
2023-03-24T11:41:10.885Z,99151.34
2023-03-24T11:43:18.114Z,99150.73
2023-03-24T11:45:25.732Z,99145.59
2023-03-24T11:47:32.324Z,99143.95
2023-03-24T11:49:39.978Z,99136.29
2023-03-24T11:51:47.440Z,99132.84
2023-03-24T11:53:54.055Z,99135.64
2023-03-24T11:56:00.822Z,99127.64
2023-03-24T11:58:07.474Z,99123.13
2023-03-24T12:00:14.116Z,99121.86
2023-03-24T12:02:21.444Z,99117.28
2023-03-24T12:04:28.901Z,99115.91
2023-03-24T12:06:35.244Z,99120.36
2023-03-24T12:08:42.117Z,99112.27
2023-03-24T12:10:48.607Z,99114.44
2023-03-24T12:12:55.273Z,99116.82
2023-03-24T12:15:02.243Z,99106.38
2023-03-24T12:17:27.020Z,99110.53
2023-03-24T12:19:34.550Z,99103.19
2023-03-24T12:21:41.857Z,99092.8
2023-03-24T12:23:49.006Z,99090.45
2023-03-24T12:25:55.930Z,99087.78
2023-03-24T12:28:02.162Z,99091.34
2023-03-24T12:30:08.555Z,99086.96
2023-03-24T12:32:14.822Z,99083.38
2023-03-24T12:34:21.449Z,99083.77
2023-03-24T12:36:27.952Z,99077.25
2023-03-24T12:38:34.305Z,99075.09
2023-03-24T12:40:40.558Z,99071.88
2023-03-24T12:42:47.035Z,99074.53
2023-03-24T12:44:53.199Z,99074.33
2023-03-24T12:46:59.521Z,99066.04
2023-03-24T12:49:06.382Z,99066.92
2023-03-24T12:51:12.773Z,99067.45
2023-03-24T12:53:19.465Z,99059.63
2023-03-24T12:55:27.228Z,99057.66
2023-03-24T12:57:33.756Z,99051.42
2023-03-24T12:59:40.696Z,99049.92
2023-03-24T13:01:48.831Z,99046.48
2023-03-24T13:03:56.397Z,99039.61
2023-03-24T13:06:17.405Z,99038.8
2023-03-24T13:08:24.580Z,99032.3
2023-03-24T13:10:32.290Z,99036.16
2023-03-24T13:15:47.570Z,99031.36
2023-03-24T13:17:55.485Z,99031.51
2023-03-24T13:20:01.979Z,99028.16
2023-03-24T13:22:08.370Z,99026.12
2023-03-24T13:24:17.460Z,99027
2023-03-24T13:26:25.623Z,99027.33
2023-03-24T13:28:32.760Z,99018.48
2023-03-24T13:30:38.846Z,99026.94
2023-03-24T13:32:46.517Z,99016.8
2023-03-24T13:34:54.044Z,99016.47
2023-03-24T13:37:01.829Z,99016.23
2023-03-24T13:39:09.735Z,99008.72
2023-03-24T13:41:16.904Z,99003.88
2023-03-24T13:43:23.355Z,99002.72
2023-03-24T13:45:30.084Z,98999.88
2023-03-24T13:47:36.790Z,98999.09
2023-03-24T13:49:44.800Z,99001.92
2023-03-24T13:51:52.986Z,98993.83
2023-03-24T13:54:00.527Z,98992.2
2023-03-24T13:56:07.840Z,98986.84
2023-03-24T13:58:15.170Z,98982.43
2023-03-24T14:00:21.858Z,98980.98
2023-03-24T14:02:28.894Z,98975.41
2023-03-24T14:04:35.769Z,98972.57
2023-03-24T14:06:42.523Z,98971.34
2023-03-24T14:08:50.124Z,98976.55
2023-03-24T14:10:56.925Z,98971.12
2023-03-24T14:13:05.696Z,98970.73
2023-03-24T14:15:12.780Z,98967.69
2023-03-24T14:17:19.565Z,98962.1
2023-03-24T14:19:26.233Z,98957.82
2023-03-24T14:21:32.965Z,98965.54
2023-03-24T14:23:40.040Z,98962.7
2023-03-24T14:25:48.647Z,98961.84
2023-03-24T14:28:00.179Z,98951.34
2023-03-24T14:30:08.318Z,98948.03
2023-03-24T14:32:22.839Z,98954.19
2023-03-24T14:34:31.301Z,98951.95
2023-03-24T14:36:38.990Z,98947.09
2023-03-24T14:38:46.732Z,98942.06
2023-03-24T14:40:54.629Z,98936.78
2023-03-24T14:43:02.991Z,98938.84
2023-03-24T14:45:15.996Z,98935.64
2023-03-24T14:47:24.170Z,98931.05
2023-03-24T14:49:43.874Z,98926.8
2023-03-24T14:51:52.546Z,98925.43
2023-03-24T14:54:01.081Z,98916.07
2023-03-24T14:56:08.674Z,98919.92
2023-03-24T14:58:16.392Z,98922.55
2023-03-24T15:00:24.150Z,98924.64
2023-03-24T15:02:33.231Z,98919.7
2023-03-24T15:04:41.045Z,98919.66
2023-03-24T15:06:49.467Z,98913.84
2023-03-24T15:08:57.386Z,98915.01
2023-03-24T15:11:04.860Z,98909.65
2023-03-24T15:13:11.568Z,98909.08
2023-03-24T15:15:20.867Z,98910.08
2023-03-24T15:17:28.586Z,98903.59
2023-03-24T15:19:36.427Z,98901.7
2023-03-24T15:21:44.005Z,98887.31
2023-03-24T15:23:50.924Z,98885.44
2023-03-24T15:25:58.017Z,98890.59
2023-03-24T15:28:05.601Z,98883.25
2023-03-24T15:30:13.177Z,98886.23
2023-03-24T15:32:20.714Z,98882.75
2023-03-24T15:34:27.727Z,98884.89
2023-03-24T15:36:34.397Z,98882.54
2023-03-24T15:38:40.708Z,98886.2
2023-03-24T15:40:47.905Z,98885.55
2023-03-24T15:42:56.608Z,98883.76
2023-03-24T15:45:03.715Z,98883.73
2023-03-24T15:47:11.851Z,98884.21
2023-03-24T15:49:19.907Z,98885.3
2023-03-24T15:51:26.731Z,98886.09
2023-03-24T15:53:33.435Z,98886.81
2023-03-24T15:55:39.823Z,98881.83
2023-03-24T15:57:46.409Z,98879.74
2023-03-24T15:59:52.932Z,98880.95
2023-03-24T16:01:59.223Z,98882.3
2023-03-24T16:04:06.332Z,98870.92
2023-03-24T16:06:13.504Z,98873.14
2023-03-24T16:08:20.360Z,98874
2023-03-24T16:10:26.806Z,98871.14
2023-03-24T16:12:33.496Z,98871.61
2023-03-24T16:14:41.225Z,98867.91
2023-03-24T16:16:48.867Z,98872.07
2023-03-24T16:18:55.610Z,98872.44
2023-03-24T16:21:02.511Z,98866.91
2023-03-24T16:23:09.450Z,98867.93
2023-03-24T16:25:16.293Z,98867.28
2023-03-24T16:27:22.632Z,98865.95
2023-03-24T16:29:29.223Z,98870.52
2023-03-24T16:31:36.660Z,98867.11
2023-03-24T16:33:45.150Z,98870.13
2023-03-24T16:35:53.748Z,98870.12
2023-03-24T16:38:01.645Z,98873.13
2023-03-24T16:40:08.730Z,98874.23
2023-03-24T16:42:15.432Z,98870.25
2023-03-24T16:44:22.941Z,98881.58
2023-03-24T16:46:30.960Z,98876.86
2023-03-24T16:48:39.127Z,98876.3
2023-03-24T16:50:46.843Z,98878.73
2023-03-24T16:52:54.401Z,98884.97
2023-03-24T16:55:01.304Z,98888.14
2023-03-24T16:57:08.141Z,98894.88
2023-03-24T16:59:15.528Z,98905.27
2023-03-24T17:01:23.651Z,98906.7
2023-03-24T17:03:31.639Z,98914.8
2023-03-24T17:05:41.990Z,98916.03
2023-03-24T17:07:51.670Z,98921.91
2023-03-24T17:09:59.228Z,98924.41
2023-03-24T17:12:08.500Z,98933.34
2023-03-24T17:14:17.568Z,98938.55
2023-03-24T17:16:25.735Z,98933.22
2023-03-24T17:18:33.463Z,98941.67
2023-03-24T17:20:44.291Z,98949.55
2023-03-24T17:22:53.837Z,98953.19
2023-03-24T17:25:06.068Z,98965.11
2023-03-24T17:27:15.090Z,98964.95
2023-03-24T17:29:23.087Z,98974.23
2023-03-24T17:31:31.960Z,98972.83
2023-03-24T17:33:39.383Z,98982.21
2023-03-24T17:35:47.658Z,98986.34
2023-03-24T17:37:57.478Z,98986.88
2023-03-24T17:40:16.748Z,98997.7
2023-03-24T17:42:25.606Z,99003.27
2023-03-24T17:44:35.932Z,99012.13
2023-03-24T17:46:45.115Z,99012.92
2023-03-24T17:48:57.058Z,99018.16
2023-03-24T17:51:06.719Z,99020.61
2023-03-24T17:53:16.117Z,99029.23
2023-03-24T17:55:26.199Z,99033.23
2023-03-24T17:57:35.612Z,99037.14
2023-03-24T17:59:46.084Z,99039.03
2023-03-24T18:01:59.035Z,99037.11
2023-03-24T18:04:08.242Z,99033.16
2023-03-24T18:06:17.446Z,99038.9
2023-03-24T18:08:30.565Z,99031.3
2023-03-24T18:10:41.705Z,99031.38
2023-03-24T18:12:53.025Z,99027.28
2023-03-24T18:15:07.805Z,99032.24
2023-03-24T18:17:23.719Z,99034.2
2023-03-24T18:19:35.356Z,99020.19
2023-03-24T18:21:51.436Z,99021.61
2023-03-24T18:24:01.079Z,99013.56
2023-03-24T18:26:15.857Z,99005.02
2023-03-24T18:28:29.750Z,99003.9
2023-03-24T18:30:41.322Z,99014.65
2023-03-24T18:32:52.698Z,99027.08
2023-03-24T18:35:03.887Z,99020.28
2023-03-24T18:37:15.025Z,99011.69
2023-03-24T18:39:28.597Z,99010.43
2023-03-24T18:41:38.330Z,99006.5
2023-03-24T18:43:50.466Z,99002.17
2023-03-24T18:46:02.533Z,99006.68
2023-03-24T18:48:15.739Z,99013.99
2023-03-24T18:50:26.833Z,99017.14
2023-03-24T18:52:37.503Z,99017.47
2023-03-24T18:54:50.502Z,99009.19
2023-03-24T18:57:03.536Z,99006.77
2023-03-24T18:59:19.014Z,99008.27
2023-03-24T19:01:30.468Z,99004.13
2023-03-24T19:03:43.649Z,98997.17
2023-03-24T19:05:56.966Z,98992.31
2023-03-24T19:08:06.610Z,98979.91
2023-03-24T19:10:24.171Z,98978.77
2023-03-24T19:12:38.838Z,98977.02
2023-03-24T19:14:50.791Z,98977.2
2023-03-24T19:17:05.450Z,98979.64
2023-03-24T19:19:16.476Z,98989.91
2023-03-24T19:21:28.791Z,98987.78
2023-03-24T19:23:47.134Z,98986.13
2023-03-24T19:26:05.388Z,98979.45
2023-03-24T19:28:20.660Z,98979.1
2023-03-24T19:30:33.119Z,98979.52
2023-03-24T19:32:47.068Z,98976.91
2023-03-24T19:35:00.309Z,98982.86
2023-03-24T19:37:14.968Z,98979.88
2023-03-24T19:39:27.470Z,98985.09
2023-03-24T19:41:43.914Z,98976.2
2023-03-24T19:43:55.125Z,98981.64
2023-03-24T19:46:07.966Z,98979.56
2023-03-24T19:48:20.039Z,98973.58
2023-03-24T19:50:30.547Z,98968.7
2023-03-24T19:52:41.087Z,98965.41
2023-03-24T19:54:51.929Z,98967.17
2023-03-24T19:57:05.191Z,98962.05
2023-03-24T19:59:19.847Z,98963.17
2023-03-24T20:01:36.882Z,98969.02
2023-03-24T20:03:48.450Z,98968.89
2023-03-24T20:06:00.447Z,98968.47
2023-03-24T20:08:14.907Z,98966.98
2023-03-24T20:10:26.603Z,98964.74
2023-03-24T20:12:42.002Z,98969.24
2023-03-24T20:14:53.248Z,98966.27
2023-03-24T20:17:06.013Z,98966.73
2023-03-24T20:19:30.366Z,98968.64
2023-03-24T20:21:48.645Z,98968.52
2023-03-24T20:24:09.528Z,98971.2
2023-03-24T20:26:19.117Z,98968.82
2023-03-24T20:28:26.961Z,98967.48
2023-03-24T20:30:48.057Z,98970.1
2023-03-24T20:33:04.192Z,98965.62
2023-03-24T20:35:16.213Z,98962.95
2023-03-24T20:37:25.800Z,98957.72
2023-03-24T20:39:37.838Z,98962.73
2023-03-24T20:41:56.269Z,98960
2023-03-24T20:44:10.502Z,98960.36
2023-03-24T20:46:21.849Z,98960.33
2023-03-24T20:48:37.862Z,98958.16
2023-03-24T20:50:47.547Z,98962.06
2023-03-24T20:53:00.559Z,98967.39
2023-03-24T20:55:16.478Z,98969.3
2023-03-24T20:57:26.523Z,98966.77
2023-03-24T20:59:41.778Z,98971.73
2023-03-24T21:01:52.584Z,98977.11
2023-03-24T21:04:11.131Z,98992.39
2023-03-24T21:06:22.667Z,99032.13
2023-03-24T21:08:34.392Z,99021.86
2023-03-24T21:10:48.809Z,99020.38
2023-03-24T21:13:03.373Z,99030.62
2023-03-24T21:15:14.866Z,99039.28
2023-03-24T21:17:28.436Z,99044.08
2023-03-24T21:19:42.018Z,99055.94
2023-03-24T21:21:51.934Z,99072.84
2023-03-24T21:24:06.370Z,99084.58
2023-03-24T21:26:20.829Z,99084.8
2023-03-24T21:28:35.606Z,99075.83
2023-03-24T21:30:46.350Z,99070.91
2023-03-24T21:32:55.601Z,99054.53
2023-03-24T21:35:06.921Z,99044.59
2023-03-24T21:37:16.115Z,99035.69
2023-03-24T21:39:23.780Z,99031.8
2023-03-24T21:41:32.722Z,99024.48
2023-03-24T21:43:41.625Z,99006.05
2023-03-24T21:45:49.336Z,99003.47
2023-03-24T21:47:57.143Z,99010.01
2023-03-24T21:50:05.210Z,99016.81
2023-03-24T21:52:13.492Z,99011.29
2023-03-24T21:54:21.057Z,99012.83
2023-03-24T21:56:28.519Z,99008.98
2023-03-24T21:58:37.675Z,99012.98
2023-03-24T22:00:45.462Z,99017.64
2023-03-24T22:02:52.180Z,99016.48
2023-03-24T22:04:59.269Z,99027.3
2023-03-24T22:07:06.239Z,99037.89
2023-03-24T22:09:13.118Z,99046.92
2023-03-24T22:11:20.764Z,99046.13
2023-03-24T22:13:27.764Z,99046.27
2023-03-24T22:15:37.367Z,99032.47
2023-03-24T22:17:44.106Z,99032.85
2023-03-24T22:19:51.741Z,99040.28
2023-03-24T22:21:59.770Z,99039.08
2023-03-24T22:24:06.645Z,99034.88
2023-03-24T22:26:13.162Z,99035.97
2023-03-24T22:28:20.365Z,99041.4
2023-03-24T22:30:26.881Z,99041.4
2023-03-24T22:32:33.779Z,99032.62
2023-03-24T22:34:41.598Z,99032.1
2023-03-24T22:36:47.919Z,99031.8
2023-03-24T22:38:55.274Z,99032.41
2023-03-24T22:41:02.354Z,99033.3
2023-03-24T22:43:09.480Z,99048.14
2023-03-24T22:45:17.575Z,99056.73
2023-03-24T22:47:24.054Z,99062.45
2023-03-24T22:49:31.662Z,99064.53
2023-03-24T22:51:38.284Z,99064.63
2023-03-24T22:53:44.785Z,99071.25
2023-03-24T22:55:53.164Z,99077.09
2023-03-24T22:58:00.688Z,99083.59
2023-03-24T23:00:07.641Z,99080.34
2023-03-24T23:02:14.848Z,99086.44
2023-03-24T23:04:21.578Z,99089.66
2023-03-24T23:06:28.169Z,99084.42
2023-03-24T23:08:34.706Z,99076.02
2023-03-24T23:10:42.335Z,99072.73
2023-03-24T23:12:48.995Z,99073.55
2023-03-24T23:14:56.155Z,99075.13
2023-03-24T23:17:02.473Z,99075.89
2023-03-24T23:19:08.884Z,99082.88
2023-03-24T23:21:15.667Z,99087.02
2023-03-24T23:23:22.305Z,99099.53
2023-03-24T23:25:29.115Z,99095.98
2023-03-24T23:27:37.201Z,99097.19
2023-03-24T23:29:44.531Z,99098.73
2023-03-24T23:31:51.220Z,99097.64
2023-03-24T23:33:58.148Z,99102.78
2023-03-24T23:36:05.603Z,99105.38
2023-03-24T23:38:12.859Z,99101.67
2023-03-24T23:40:19.483Z,99100.84
2023-03-24T23:42:25.718Z,99101.25
2023-03-24T23:44:32.469Z,99104.28
2023-03-24T23:46:38.740Z,99100.13
2023-03-24T23:48:45.877Z,99100.23
2023-03-24T23:50:52.340Z,99101.23
2023-03-24T23:52:59.685Z,99112.94
2023-03-24T23:55:06.116Z,99110.22
2023-03-24T23:57:12.974Z,99118.13
2023-03-24T23:59:19.762Z,99116.78
